Terminal Aerodrome Forecast
Issued by NWS

Home | Current Version | Previous Version | Text Only | Print | Product List | Glossary On
Versions: 1 2 3 4 5 6 7 8 9 10 11 12 13 14 15 16
000
FTUS41 KAKQ 040929 AAA
TAFPHF
TAF AMD
KPHF 040929Z 0409/0506 22010KT P6SM SCT015
      TEMPO 0409/0412 BKN015
     FM041600 22013G18KT P6SM SCT050 BKN250=

USA.gov is the U.S. government's official web portal to all federal, state and local government web resources and services.